createdAt,value
2022-10-10T00:01:39.876Z,15.91
2022-10-10T00:04:07.965Z,15.84
2022-10-10T00:06:36.117Z,15.78
2022-10-10T00:09:07.179Z,15.80
2022-10-10T00:11:36.266Z,15.67
2022-10-10T00:14:04.834Z,15.73
2022-10-10T00:16:32.850Z,15.69
2022-10-10T00:19:00.930Z,15.68
2022-10-10T00:21:28.899Z,15.57
2022-10-10T00:23:58.376Z,15.62
2022-10-10T00:26:26.712Z,15.58
2022-10-10T00:28:56.966Z,15.55
2022-10-10T00:31:24.961Z,15.57
2022-10-10T00:33:54.062Z,15.53
2022-10-10T00:36:21.851Z,15.56
2022-10-10T00:38:49.955Z,15.55
2022-10-10T00:41:18.185Z,15.52
2022-10-10T00:44:06.416Z,15.51
2022-10-10T00:46:34.929Z,15.47
2022-10-10T00:49:17.008Z,15.56
2022-10-10T00:51:49.365Z,15.50
2022-10-10T00:54:21.193Z,15.50
2022-10-10T00:57:05.830Z,15.48
2022-10-10T00:59:36.844Z,15.44
2022-10-10T01:02:07.664Z,15.46
2022-10-10T01:04:45.741Z,15.39
2022-10-10T01:07:25.804Z,15.39
2022-10-10T01:09:58.510Z,15.42
2022-10-10T01:12:41.617Z,15.41
2022-10-10T01:15:43.252Z,15.36
2022-10-10T01:18:50.166Z,15.29
2022-10-10T01:21:42.460Z,15.30
2022-10-10T01:24:47.953Z,15.30
2022-10-10T01:27:42.968Z,15.27
2022-10-10T01:30:17.326Z,15.26
2022-10-10T01:33:13.205Z,15.29
2022-10-10T01:35:51.373Z,15.25
2022-10-10T01:38:52.620Z,15.26
2022-10-10T01:42:01.909Z,15.19
2022-10-10T01:44:30.388Z,15.17
2022-10-10T01:46:59.728Z,15.16
2022-10-10T01:49:33.110Z,15.22
2022-10-10T01:52:16.202Z,15.23
2022-10-10T01:54:52.822Z,15.22
2022-10-10T01:58:04.000Z,15.17
2022-10-10T02:00:50.371Z,15.13
2022-10-10T02:03:31.055Z,15.11
2022-10-10T02:06:15.375Z,15.08
2022-10-10T02:08:52.199Z,15.04
2022-10-10T02:11:20.396Z,15.01
2022-10-10T02:13:58.506Z,15.05
2022-10-10T02:16:38.775Z,15.02
2022-10-10T02:19:12.879Z,14.96
2022-10-10T02:21:42.778Z,14.89
2022-10-10T02:24:13.443Z,14.87
2022-10-10T02:26:46.833Z,14.87
2022-10-10T02:29:22.026Z,14.87
2022-10-10T02:32:12.470Z,14.86
2022-10-10T02:34:48.588Z,14.82
2022-10-10T02:37:19.143Z,14.76
2022-10-10T02:39:55.772Z,14.80
2022-10-10T02:42:24.942Z,14.77
2022-10-10T02:44:53.930Z,14.73
2022-10-10T02:47:23.812Z,14.83
2022-10-10T02:49:52.065Z,14.84
2022-10-10T02:52:21.513Z,14.82
2022-10-10T02:54:51.004Z,14.75
2022-10-10T02:57:19.149Z,14.84
2022-10-10T02:59:46.795Z,14.77
2022-10-10T03:02:16.823Z,14.81
2022-10-10T03:04:45.872Z,14.78
2022-10-10T03:07:15.419Z,14.66
2022-10-10T03:09:43.356Z,14.71
2022-10-10T03:12:11.554Z,14.69
2022-10-10T03:14:41.556Z,14.64
2022-10-10T03:17:09.747Z,14.68
2022-10-10T03:19:39.375Z,14.73
2022-10-10T03:22:07.836Z,14.73
2022-10-10T03:24:35.975Z,14.78
2022-10-10T03:27:04.007Z,14.82
2022-10-10T03:29:32.593Z,14.88
2022-10-10T03:32:00.558Z,14.85
2022-10-10T03:34:28.628Z,14.85
2022-10-10T03:36:56.863Z,14.92
2022-10-10T03:39:24.907Z,14.91
2022-10-10T03:41:52.707Z,14.87
2022-10-10T03:44:20.852Z,14.86
2022-10-10T03:46:48.974Z,14.79
2022-10-10T03:49:16.899Z,14.78
2022-10-10T03:51:45.106Z,14.76
2022-10-10T03:54:13.675Z,14.74
2022-10-10T03:56:42.324Z,14.61
2022-10-10T03:59:10.748Z,14.62
2022-10-10T04:01:38.858Z,14.60
2022-10-10T04:04:09.557Z,14.61
2022-10-10T04:06:39.797Z,14.58
2022-10-10T04:09:07.856Z,14.59
2022-10-10T04:11:37.337Z,14.57
2022-10-10T04:14:05.527Z,14.57
2022-10-10T04:16:33.855Z,14.51
2022-10-10T04:19:03.633Z,14.45
2022-10-10T04:21:32.215Z,14.42
2022-10-10T04:24:00.566Z,14.41
2022-10-10T04:26:29.191Z,14.41
2022-10-10T04:28:57.624Z,14.49
2022-10-10T04:31:26.749Z,14.49
2022-10-10T04:33:54.932Z,14.52
2022-10-10T04:36:24.015Z,14.56
2022-10-10T04:38:52.145Z,14.55
2022-10-10T04:41:19.879Z,14.55
2022-10-10T04:43:47.768Z,14.54
2022-10-10T04:46:16.344Z,14.54
2022-10-10T04:48:44.225Z,14.50
2022-10-10T04:51:12.399Z,14.45
2022-10-10T04:53:40.563Z,14.41
2022-10-10T04:56:10.114Z,14.42
2022-10-10T04:58:40.295Z,14.41
2022-10-10T05:01:08.287Z,14.37
2022-10-10T05:03:36.562Z,14.39
2022-10-10T05:06:04.803Z,14.38
2022-10-10T05:08:34.258Z,14.35
2022-10-10T05:11:02.738Z,14.30
2022-10-10T05:13:30.724Z,14.23
2022-10-10T05:16:00.495Z,14.20
2022-10-10T05:18:29.920Z,14.19
2022-10-10T05:21:03.487Z,14.22
2022-10-10T05:23:32.273Z,14.17
2022-10-10T05:26:02.484Z,14.18
2022-10-10T05:28:35.219Z,14.28
2022-10-10T05:31:06.449Z,14.33
2022-10-10T05:33:36.842Z,14.37
2022-10-10T05:36:13.715Z,14.43
2022-10-10T05:38:44.346Z,14.44
2022-10-10T05:41:13.169Z,14.44
2022-10-10T05:43:41.186Z,14.52
2022-10-10T05:46:11.344Z,14.52
2022-10-10T05:48:39.240Z,14.58
2022-10-10T05:51:08.156Z,14.61
2022-10-10T05:53:36.141Z,14.67
2022-10-10T05:56:06.283Z,14.72
2022-10-10T05:58:36.901Z,14.81
2022-10-10T06:01:08.025Z,14.87
2022-10-10T06:03:36.861Z,14.93
2022-10-10T06:06:07.293Z,14.98
2022-10-10T06:08:35.523Z,15.05
2022-10-10T06:11:08.185Z,15.12
2022-10-10T06:13:37.424Z,15.13
2022-10-10T06:16:06.543Z,15.23
2022-10-10T06:18:35.973Z,15.27
2022-10-10T06:21:07.872Z,15.35
2022-10-10T06:23:37.146Z,15.35
2022-10-10T06:26:07.127Z,15.39
2022-10-10T06:28:35.481Z,15.38
2022-10-10T06:31:09.219Z,15.33
2022-10-10T06:33:37.621Z,15.39
2022-10-10T06:36:08.326Z,15.43
2022-10-10T06:38:42.598Z,15.42
2022-10-10T06:41:11.308Z,15.47
2022-10-10T06:43:39.370Z,15.51
2022-10-10T06:46:08.149Z,15.50
2022-10-10T06:48:37.037Z,15.55
2022-10-10T06:51:13.614Z,15.57
2022-10-10T06:53:42.040Z,15.58
2022-10-10T06:56:27.105Z,15.59
2022-10-10T06:58:56.990Z,15.63
2022-10-10T07:01:26.521Z,15.64
2022-10-10T07:03:56.599Z,15.68
2022-10-10T07:06:26.230Z,15.67
2022-10-10T07:08:54.074Z,15.62
2022-10-10T07:11:23.394Z,15.68
2022-10-10T07:13:54.081Z,15.70
2022-10-10T07:16:23.430Z,15.79
2022-10-10T07:18:51.188Z,15.80
2022-10-10T07:21:19.150Z,15.82
2022-10-10T07:23:47.564Z,15.83
2022-10-10T07:26:18.172Z,15.88
2022-10-10T07:28:46.846Z,15.88
2022-10-10T07:31:15.947Z,16.01
2022-10-10T07:33:50.554Z,16.11
2022-10-10T07:36:38.666Z,16.15
2022-10-10T07:39:08.454Z,16.22
2022-10-10T07:41:37.881Z,16.22
2022-10-10T07:44:05.859Z,16.30
2022-10-10T07:46:34.393Z,16.33
2022-10-10T07:49:02.413Z,16.51
2022-10-10T07:51:30.703Z,16.58
2022-10-10T07:53:59.763Z,16.65
2022-10-10T07:56:28.161Z,16.71
2022-10-10T07:58:58.335Z,16.83
2022-10-10T08:01:27.634Z,16.91
2022-10-10T08:03:57.404Z,17.01
2022-10-10T08:06:25.779Z,17.12
2022-10-10T08:08:53.540Z,17.13
2022-10-10T08:11:23.171Z,17.35
2022-10-10T08:13:52.945Z,17.46
2022-10-10T08:16:21.277Z,17.58
2022-10-10T08:18:50.099Z,17.62
2022-10-10T08:21:19.855Z,17.79
2022-10-10T08:23:50.622Z,17.89
2022-10-10T08:26:20.364Z,18.00
2022-10-10T08:28:48.851Z,18.16
2022-10-10T08:31:22.166Z,18.31
2022-10-10T08:33:53.253Z,18.44
2022-10-10T08:36:23.844Z,18.62
2022-10-10T08:38:57.393Z,18.73
2022-10-10T08:41:42.684Z,18.94
2022-10-10T08:44:40.935Z,19.08
2022-10-10T08:47:35.968Z,19.21
2022-10-10T08:50:21.821Z,19.28
2022-10-10T08:53:09.486Z,19.43
2022-10-10T08:55:43.932Z,19.49
2022-10-10T08:58:31.239Z,19.59
2022-10-10T09:01:27.994Z,19.65
2022-10-10T09:04:01.286Z,19.67
2022-10-10T09:06:50.914Z,19.52
2022-10-10T09:09:48.742Z,19.65
2022-10-10T09:12:27.154Z,19.69
2022-10-10T09:15:18.425Z,19.71
2022-10-10T09:18:17.176Z,19.70
2022-10-10T09:21:12.760Z,19.71
2022-10-10T09:23:53.641Z,19.76
2022-10-10T09:26:56.602Z,19.79
2022-10-10T09:30:04.356Z,19.84
2022-10-10T09:32:44.867Z,19.87
2022-10-10T09:35:29.298Z,19.97
2022-10-10T09:38:41.974Z,20.04
2022-10-10T09:41:49.357Z,20.10
2022-10-10T09:44:22.501Z,20.10
2022-10-10T09:46:50.742Z,20.20
2022-10-10T09:49:20.646Z,20.29
2022-10-10T09:51:50.749Z,20.30
2022-10-10T09:54:20.841Z,20.38
2022-10-10T09:57:00.102Z,20.48
2022-10-10T09:59:46.169Z,20.52
2022-10-10T10:02:27.262Z,20.59
2022-10-10T10:04:57.813Z,20.59
2022-10-10T10:07:26.063Z,20.71
2022-10-10T10:10:01.967Z,20.80
2022-10-10T10:12:42.080Z,20.80
2022-10-10T10:15:23.408Z,20.94
2022-10-10T10:18:29.881Z,20.96
2022-10-10T10:21:06.317Z,21.07
2022-10-10T10:24:18.543Z,21.14
2022-10-10T10:26:48.323Z,21.07
2022-10-10T10:29:31.169Z,21.27
2022-10-10T10:32:39.463Z,21.31
2022-10-10T10:35:10.376Z,21.35
2022-10-10T10:37:48.069Z,21.45
2022-10-10T10:40:57.787Z,21.48
2022-10-10T10:44:02.769Z,21.56
2022-10-10T10:47:02.880Z,21.62
2022-10-10T10:50:01.574Z,21.71
2022-10-10T10:53:23.025Z,21.77
2022-10-10T10:56:15.447Z,21.63
2022-10-10T10:59:31.368Z,21.82
2022-10-10T11:02:09.438Z,21.94
2022-10-10T11:05:19.115Z,22.03
2022-10-10T11:08:12.241Z,22.11
2022-10-10T11:11:09.547Z,22.16
2022-10-10T11:14:00.434Z,22.22
2022-10-10T11:16:49.682Z,22.26
2022-10-10T11:19:38.860Z,22.37
2022-10-10T11:22:22.564Z,22.42
2022-10-10T11:25:05.667Z,22.40
2022-10-10T11:27:45.005Z,22.56
2022-10-10T11:30:27.754Z,22.53
2022-10-10T11:33:05.519Z,22.63
2022-10-10T11:35:56.554Z,22.73
2022-10-10T11:39:15.358Z,22.76
2022-10-10T11:42:00.577Z,22.82
2022-10-10T11:44:40.371Z,22.86
2022-10-10T11:47:15.755Z,22.89
2022-10-10T11:50:25.879Z,22.98
2022-10-10T11:53:16.811Z,23.04
2022-10-10T11:56:13.713Z,23.09
2022-10-10T11:58:54.870Z,23.13
2022-10-10T12:04:36.192Z,23.22
2022-10-10T12:07:25.436Z,23.29
2022-10-10T12:10:05.062Z,23.35
2022-10-10T12:12:50.305Z,23.38
2022-10-10T12:15:56.402Z,23.44
2022-10-10T12:18:56.350Z,23.47
2022-10-10T12:21:28.388Z,23.47
2022-10-10T12:24:21.061Z,23.55
2022-10-10T12:27:57.134Z,23.58
2022-10-10T12:30:32.357Z,23.59
2022-10-10T12:36:57.106Z,23.71
2022-10-10T12:40:19.130Z,23.75
2022-10-10T12:42:50.249Z,23.75
2022-10-10T12:45:37.458Z,23.85
2022-10-10T12:48:25.196Z,23.88
2022-10-10T12:51:22.486Z,23.92
2022-10-10T12:53:57.450Z,23.93
2022-10-10T12:56:44.756Z,23.99
2022-10-10T12:59:24.269Z,24.03
2022-10-10T13:02:11.387Z,24.06
2022-10-10T13:04:44.831Z,24.05
2022-10-10T13:07:19.291Z,24.04
2022-10-10T13:09:51.336Z,24.16
2022-10-10T13:12:32.895Z,24.22
2022-10-10T13:15:02.007Z,24.24
2022-10-10T13:17:41.251Z,24.29
2022-10-10T13:20:39.374Z,24.34
2022-10-10T13:23:15.445Z,24.38
2022-10-10T13:25:46.387Z,24.36
2022-10-10T13:28:20.829Z,24.52
2022-10-10T13:30:52.992Z,24.55
2022-10-10T13:33:34.426Z,24.65
2022-10-10T13:36:18.384Z,24.61
2022-10-10T13:38:49.255Z,24.69
2022-10-10T13:41:22.000Z,24.71
2022-10-10T13:43:50.764Z,24.77
2022-10-10T13:46:30.578Z,24.83
2022-10-10T13:49:00.857Z,24.81
2022-10-10T13:51:47.234Z,24.90
2022-10-10T13:54:48.304Z,24.89
2022-10-10T13:57:27.282Z,24.83
2022-10-10T14:00:15.574Z,24.95
2022-10-10T14:02:46.242Z,24.93
2022-10-10T14:05:31.452Z,25.01
2022-10-10T14:08:00.629Z,24.96
2022-10-10T14:10:36.288Z,25.05
2022-10-10T14:13:04.177Z,25.06
2022-10-10T14:15:45.395Z,25.10
2022-10-10T14:18:25.233Z,24.90
2022-10-10T14:20:54.423Z,25.02
2022-10-10T14:23:22.581Z,25.12
2022-10-10T14:25:51.497Z,25.18
2022-10-10T14:28:26.026Z,25.24
2022-10-10T14:30:56.366Z,25.32
2022-10-10T14:33:27.246Z,25.41
2022-10-10T14:35:59.157Z,25.44
2022-10-10T14:38:28.140Z,25.51
2022-10-10T14:40:59.083Z,25.50
2022-10-10T14:43:28.942Z,25.63
2022-10-10T14:45:57.970Z,25.65
2022-10-10T14:48:26.950Z,25.64
2022-10-10T14:50:55.476Z,25.56
2022-10-10T14:53:23.786Z,25.63
2022-10-10T14:55:56.155Z,25.60
2022-10-10T14:58:26.443Z,25.60
2022-10-10T15:00:55.101Z,25.57
2022-10-10T15:03:23.897Z,25.60
2022-10-10T15:05:52.489Z,25.55
2022-10-10T15:08:20.738Z,25.55
2022-10-10T15:10:50.312Z,25.40
2022-10-10T15:13:18.423Z,25.44
2022-10-10T15:15:48.038Z,25.45
2022-10-10T15:18:51.817Z,25.39
2022-10-10T15:21:11.252Z,25.38
2022-10-10T15:23:39.912Z,25.29
2022-10-10T15:26:08.310Z,25.26
2022-10-10T15:28:37.257Z,25.28
2022-10-10T15:31:06.339Z,25.27
2022-10-10T15:33:34.936Z,25.26
2022-10-10T15:36:10.197Z,25.23
2022-10-10T15:38:39.055Z,25.16
2022-10-10T15:41:10.064Z,25.16
2022-10-10T15:43:54.506Z,24.90
2022-10-10T15:46:26.931Z,24.96
2022-10-10T15:49:01.267Z,24.94
2022-10-10T15:51:30.398Z,24.92
2022-10-10T15:54:01.826Z,24.91
2022-10-10T15:56:33.657Z,24.81
2022-10-10T15:59:03.400Z,24.87
2022-10-10T16:01:32.597Z,24.85
2022-10-10T16:04:04.042Z,24.82
2022-10-10T16:06:34.209Z,24.77
2022-10-10T16:09:26.736Z,24.72
2022-10-10T16:11:50.698Z,24.64
2022-10-10T16:14:18.635Z,24.58
2022-10-10T16:16:47.415Z,24.53
2022-10-10T16:19:15.814Z,24.47
2022-10-10T16:21:44.601Z,24.40
2022-10-10T16:24:15.442Z,24.36
2022-10-10T16:26:43.792Z,24.30
2022-10-10T16:29:13.352Z,24.26
2022-10-10T16:31:42.872Z,24.21
2022-10-10T16:34:13.229Z,24.19
2022-10-10T16:36:41.261Z,24.13
2022-10-10T16:39:10.529Z,24.04
2022-10-10T16:41:48.406Z,24.04
2022-10-10T16:44:18.031Z,23.98
2022-10-10T16:46:46.403Z,23.99
2022-10-10T16:49:17.051Z,23.94
2022-10-10T16:51:46.234Z,23.85
2022-10-10T16:54:14.469Z,23.78
2022-10-10T16:56:42.771Z,23.63
2022-10-10T16:59:12.050Z,23.61
2022-10-10T17:01:40.374Z,23.52
2022-10-10T17:04:10.155Z,23.49
2022-10-10T17:06:38.139Z,23.40
2022-10-10T17:09:09.859Z,23.34
2022-10-10T17:11:38.381Z,23.32
2022-10-10T17:14:06.657Z,23.33
2022-10-10T17:19:23.918Z,23.24
2022-10-10T17:21:52.191Z,23.16
2022-10-10T17:24:20.571Z,23.06
2022-10-10T17:26:49.522Z,23.02
2022-10-10T17:29:18.984Z,23.01
2022-10-10T17:31:48.699Z,22.98
2022-10-10T17:34:19.967Z,22.94
2022-10-10T17:36:50.155Z,22.89
2022-10-10T17:39:18.709Z,22.88
2022-10-10T17:41:50.105Z,22.88
2022-10-10T17:44:18.227Z,22.72
2022-10-10T17:46:47.345Z,22.76
2022-10-10T17:49:20.222Z,22.71
2022-10-10T17:51:49.080Z,22.67
2022-10-10T17:54:17.212Z,22.63
2022-10-10T17:56:46.015Z,22.55
2022-10-10T17:59:14.151Z,22.55
2022-10-10T18:01:44.078Z,22.52
2022-10-10T18:04:16.283Z,22.49
2022-10-10T18:06:44.836Z,22.36
2022-10-10T18:09:14.072Z,22.31
2022-10-10T18:11:44.543Z,22.25
2022-10-10T18:14:13.738Z,22.22
2022-10-10T18:16:42.017Z,22.17
2022-10-10T18:19:12.311Z,22.16
2022-10-10T18:21:43.148Z,22.20
2022-10-10T18:24:11.400Z,22.19
2022-10-10T18:26:39.855Z,22.22
2022-10-10T18:29:08.003Z,22.24
2022-10-10T18:31:38.253Z,22.26
2022-10-10T18:34:07.826Z,22.25
2022-10-10T18:36:39.887Z,22.24
2022-10-10T18:39:12.392Z,22.28
2022-10-10T18:41:40.571Z,22.31
2022-10-10T18:44:12.979Z,22.31
2022-10-10T18:46:41.300Z,22.30
2022-10-10T18:49:11.656Z,22.36
2022-10-10T18:51:43.531Z,22.36
2022-10-10T18:54:16.166Z,22.42
2022-10-10T18:56:49.359Z,22.43
2022-10-10T18:59:23.750Z,22.47
2022-10-10T19:01:52.675Z,22.46
2022-10-10T19:04:23.454Z,22.48
2022-10-10T19:06:57.100Z,22.44
2022-10-10T19:09:26.958Z,22.46
2022-10-10T19:11:57.386Z,22.43
2022-10-10T19:14:26.384Z,22.47
2022-10-10T19:16:54.459Z,22.43
2022-10-10T19:19:24.235Z,22.47
2022-10-10T19:21:53.050Z,22.48
2022-10-10T19:24:22.584Z,22.49
2022-10-10T19:26:56.030Z,22.47
2022-10-10T19:29:26.267Z,22.50
2022-10-10T19:31:56.381Z,22.43
2022-10-10T19:34:25.776Z,22.44
2022-10-10T19:36:55.842Z,22.44
2022-10-10T19:39:25.352Z,22.42
2022-10-10T19:41:54.086Z,22.37
2022-10-10T19:44:22.623Z,22.36
2022-10-10T19:46:51.108Z,22.35
2022-10-10T19:49:19.435Z,22.29
2022-10-10T19:51:50.126Z,22.21
2022-10-10T19:54:18.723Z,22.28
2022-10-10T19:56:48.299Z,22.23
2022-10-10T19:59:16.354Z,22.18
2022-10-10T20:01:44.276Z,22.19
2022-10-10T20:04:12.481Z,22.16
2022-10-10T20:06:41.399Z,22.08
2022-10-10T20:09:11.164Z,22.12
2022-10-10T20:11:40.192Z,22.07
2022-10-10T20:14:09.445Z,22.08
2022-10-10T20:16:38.030Z,22.03
2022-10-10T20:19:06.005Z,21.98
2022-10-10T20:21:35.248Z,21.98
2022-10-10T20:24:09.863Z,21.96
2022-10-10T20:26:37.910Z,21.87
2022-10-10T20:29:07.933Z,21.85
2022-10-10T20:31:37.756Z,21.82
2022-10-10T20:34:06.953Z,21.80
2022-10-10T20:36:37.429Z,21.79
2022-10-10T20:39:09.485Z,21.79
2022-10-10T20:41:40.705Z,21.76
2022-10-10T20:44:12.885Z,21.72
2022-10-10T20:46:43.802Z,21.77
2022-10-10T20:49:19.189Z,21.72
2022-10-10T20:51:49.581Z,21.66
2022-10-10T20:54:22.847Z,21.77
2022-10-10T20:56:51.958Z,21.74
2022-10-10T20:59:21.437Z,21.78
2022-10-10T21:01:51.168Z,21.76
2022-10-10T21:04:19.551Z,21.80
2022-10-10T21:06:47.655Z,21.84
2022-10-10T21:09:16.173Z,21.84
2022-10-10T21:11:50.573Z,21.81
2022-10-10T21:14:21.092Z,21.81
2022-10-10T21:16:50.927Z,21.79
2022-10-10T21:19:19.525Z,21.84
2022-10-10T21:21:47.855Z,21.84
2022-10-10T21:24:16.180Z,21.93
2022-10-10T21:26:45.519Z,21.94
2022-10-10T21:29:15.984Z,21.97
2022-10-10T21:31:44.423Z,21.94
2022-10-10T21:34:17.251Z,21.96
2022-10-10T21:36:46.544Z,21.94
2022-10-10T21:39:15.026Z,21.93
2022-10-10T21:41:43.127Z,21.94
2022-10-10T21:44:11.684Z,21.93
2022-10-10T21:46:39.879Z,21.92
2022-10-10T21:49:11.712Z,21.88
2022-10-10T21:51:43.629Z,21.88
2022-10-10T21:54:12.721Z,21.78
2022-10-10T21:56:40.955Z,21.77
2022-10-10T21:59:10.608Z,21.73
2022-10-10T22:01:40.105Z,21.71
2022-10-10T22:04:08.931Z,21.62
2022-10-10T22:06:39.173Z,21.64
2022-10-10T22:09:07.530Z,21.67
2022-10-10T22:11:35.882Z,21.60
2022-10-10T22:14:04.814Z,21.62
2022-10-10T22:16:33.771Z,21.57
2022-10-10T22:19:02.778Z,21.54
2022-10-10T22:21:32.434Z,21.48
2022-10-10T22:24:06.290Z,21.47
2022-10-10T22:26:35.495Z,21.45
2022-10-10T22:29:04.693Z,21.41
2022-10-10T22:31:35.739Z,21.37
2022-10-10T22:34:06.267Z,21.30
2022-10-10T22:36:34.631Z,21.25
2022-10-10T22:39:05.953Z,21.26
2022-10-10T22:41:34.322Z,21.24
2022-10-10T22:44:03.595Z,21.23
2022-10-10T22:46:31.694Z,21.23
2022-10-10T22:48:59.604Z,21.24
2022-10-10T22:51:27.923Z,21.13
2022-10-10T22:53:56.290Z,21.25
2022-10-10T22:56:25.457Z,21.24
2022-10-10T22:58:53.693Z,21.26
2022-10-10T23:01:26.068Z,21.29
2022-10-10T23:04:00.724Z,21.23
2022-10-10T23:06:29.799Z,21.29
2022-10-10T23:08:58.751Z,21.28
2022-10-10T23:11:26.724Z,21.33
2022-10-10T23:13:54.806Z,21.33
2022-10-10T23:16:24.202Z,21.32
2022-10-10T23:18:53.378Z,21.33
2022-10-10T23:21:21.604Z,21.35
2022-10-10T23:23:49.636Z,21.31
2022-10-10T23:26:19.652Z,21.36
2022-10-10T23:28:51.973Z,21.27
2022-10-10T23:31:21.069Z,21.31
2022-10-10T23:33:50.639Z,21.29
2022-10-10T23:36:20.327Z,21.21
2022-10-10T23:38:48.817Z,21.30
2022-10-10T23:41:16.775Z,21.26
2022-10-10T23:43:44.860Z,21.28
2022-10-10T23:46:14.659Z,21.23
2022-10-10T23:48:43.129Z,21.25
2022-10-10T23:51:13.165Z,21.23
2022-10-10T23:53:42.316Z,21.20
2022-10-10T23:56:12.156Z,21.19
2022-10-10T23:58:39.974Z,21.09
